Guymon, OK

1:26 PM CDT en Octubre 31, 2014 (GMT -0500)
Guymon Municipal | Change Station
CLOSE
Current Station
Aeropuerto
Location: Guymon,
Altura: 3123 ft
Estaciones meteorológicas cercanas

Alt 3123 ft 36.68 °N, 101.51 °W | Updated 33 minutes ago

Clear
Despejado
52 ° F
Sensación térmica 52 ° F
N
8
Viento Variable Viento desde ENE

Hoy
Alta -- | Baja -- ° F
--% Posibilidad de precipitaciones
Ayer
Alta -- | Baja -- ° F
Precip. -- pul
8:08 AM 6:49 PM
Cuarto creciente, 57% visible
Presión 30.43 pul
Visibilidad 10.0 Millas
Nubes Despejado
Punto de rocío 29 ° F
Humedad 41%
Precipitaciones 0.00 pul
Espesor de la nieve No disponible.
UV 5 de una escala de 12
Polen 5.10 de una escala de 12
Calidad del aire No disponible.
Flu Activity No disponible.
METAR KGUY 311753Z AUTO 07007KT 10SM CLR 11/M02 A3046 RMK AO2 SLP304 T01111017 10111 20006 58010

More Conditions Fewer Conditions

Presión 30.43 pul
Visibilidad 10.0 Millas
Nubes Despejado
Punto de rocío 29 ° F
Humedad 41%
Precipitaciones 0.00 pul
Espesor de la nieve No disponible.
UV 5 de una escala de 12
Polen 5.10 de una escala de 12
Calidad del aire No disponible.
Flu Activity No disponible.
METAR KGUY 311753Z AUTO 07007KT 10SM CLR 11/M02 A3046 RMK AO2 SLP304 T01111017 10111 20006 58010

More Conditions Fewer Conditions

10-Day Weather Forecast

Almanac

Astronomía

Oct. 31, 2014 Salida Puesta
Hora real
Crepúsculo civil
Crepúsculo náutico
Crepúsculo astronómico
Luna
Horas de luz
Horas de luz
Tomorrow will be .
, % of the Moon is Illuminated

Extremos de hoy

Máximos del estado Bajos del estado

Community

WunderPhotos

Upload Photos

1,766,686 ¡fotos cargadas!

WunderBlogs® & News

Nearby

Calidad del aire

  Calidad del aire Índice AQ Contaminante
Not available.

Grosos de nieve

Estación Profundido Altura

Actividad de terremotos

Ciudad Distance Mag. Tiempo y dato
Magnitud mínima muestra es 2,5.

Temperaturas de aguas costeras

Lugar Temperatura

Estaciones meteorológicas cercanas